Winterton, Canada
Current Conditions -  °F | °C
As of 7:00 PM on Tuesday 25 Nov 2014 (Local Time) from CYYT Reporting Station
Broken Clouds Broken Clouds  
Wind Chill: 55°   Ceiling: 700
Heat Index: 55°   Visibility: 15mi
Dew Point: 54°   Wind: 30mph
Humidity: 94%   Direction: 250°WSW
Pressure: 29.69"   Gusts: 40mph
Location:  47.97°N, 53.33°W
Report Text: CYYT 252200Z 25026G35KT 15SM BKN007 13/12 A2969 RMK SF7 SLP056 DENSITY ALT 500FT
Loading
Personal Weather Stations






























Interactive Weather Map New forecast layout! Learn more

10-Day Weather Forecast

Advertisements
Track Severe Weather on mobile